Choccolocco, Alabama
Current Conditions -  °F | °C
As of 5:53 PM on Thursday 27 Nov 2014 (Local Time) from KANB Reporting Station
Few Clouds Few Clouds  
Wind Chill: 38°   Ceiling: Unl
Heat Index: 41°   Visibility: 10mi
Dew Point: 26°   Wind: 5mph
Humidity: 55%   Direction: 290°WNW
Pressure: 30.4"   Gusts: NA
Location:  33.66°N, 85.7°W
Report Text: KANB 272353Z AUTO 29004KT 10SM FEW043 05/M03 A3040 RMK AO2 SLP303 T00501033 10089 20050 51016
Loading
Personal Weather Stations






























Interactive Weather Map New forecast layout! Learn more

10-Day Weather Forecast

Advertisements
Track Severe Weather on mobile